createdAt,value
2019-03-21T00:00:43.523Z,10.38
2019-03-21T00:03:12.057Z,6.80
2019-03-21T00:05:40.549Z,9.55
2019-03-21T00:08:09.604Z,9.98
2019-03-21T00:10:41.089Z,8.33
2019-03-21T00:13:09.833Z,6.25
2019-03-21T00:15:44.026Z,9.93
2019-03-21T00:18:16.893Z,6.87
2019-03-21T00:20:45.451Z,7.22
2019-03-21T00:23:13.910Z,7.60
2019-03-21T00:25:42.452Z,17.07
2019-03-21T00:28:11.029Z,25.75
2019-03-21T00:30:39.606Z,18.60
2019-03-21T00:33:10.509Z,10.68
2019-03-21T00:35:38.786Z,10.08
2019-03-21T00:38:07.386Z,7.30
2019-03-21T00:40:38.579Z,10.60
2019-03-21T00:43:09.443Z,11.03
2019-03-21T00:45:37.933Z,8.38
2019-03-21T00:48:09.267Z,10.25
2019-03-21T00:50:37.707Z,7.17
2019-03-21T00:53:06.292Z,10.30
2019-03-21T00:55:43.933Z,8.18
2019-03-21T00:58:12.344Z,10.60
2019-03-21T01:00:59.329Z,13.55
2019-03-21T01:03:27.740Z,8.60
2019-03-21T01:05:56.446Z,7.67
2019-03-21T01:08:24.956Z,7.97
2019-03-21T01:10:53.623Z,9.80
2019-03-21T01:13:23.117Z,10.20
2019-03-21T01:15:51.553Z,10.63
2019-03-21T01:18:20.015Z,8.55
2019-03-21T01:20:48.800Z,10.10
2019-03-21T01:23:17.374Z,6.47
2019-03-21T01:25:51.956Z,8.05
2019-03-21T01:28:20.382Z,8.93
2019-03-21T01:30:48.858Z,7.53
2019-03-21T01:33:17.304Z,9.90
2019-03-21T01:35:45.785Z,11.03
2019-03-21T01:38:14.344Z,7.60
2019-03-21T01:40:48.745Z,8.73
2019-03-21T01:43:17.631Z,7.22
2019-03-21T01:45:46.053Z,7.40
2019-03-21T01:48:14.545Z,11.20
2019-03-21T01:50:43.739Z,9.73
2019-03-21T01:53:12.214Z,9.80
2019-03-21T01:55:40.629Z,10.53
2019-03-21T01:58:09.201Z,9.83
2019-03-21T02:00:49.407Z,9.95
2019-03-21T02:03:17.824Z,13.35
2019-03-21T02:05:46.367Z,12.13
2019-03-21T02:08:14.868Z,10.78
2019-03-21T02:10:43.363Z,12.68
2019-03-21T02:13:11.807Z,9.70
2019-03-21T02:15:40.808Z,10.05
2019-03-21T02:18:09.495Z,10.50
2019-03-21T02:20:37.926Z,11.65
2019-03-21T02:23:06.738Z,11.28
2019-03-21T02:25:36.503Z,10.45
2019-03-21T02:28:05.727Z,12.40
2019-03-21T02:30:40.151Z,9.85
2019-03-21T02:33:20.790Z,10.08
2019-03-21T02:35:49.243Z,8.40
2019-03-21T02:38:17.709Z,9.25
2019-03-21T02:40:47.452Z,10.82
2019-03-21T02:43:15.948Z,12.53
2019-03-21T02:45:44.386Z,9.93
2019-03-21T02:48:12.829Z,14.93
2019-03-21T02:50:45.621Z,14.65
2019-03-21T02:53:14.052Z,11.05
2019-03-21T02:55:42.488Z,9.70
2019-03-21T02:58:10.937Z,13.30
2019-03-21T03:00:44.252Z,15.72
2019-03-21T03:03:12.687Z,10.40
2019-03-21T03:05:41.161Z,19.65
2019-03-21T03:08:10.265Z,10.90
2019-03-21T03:10:56.058Z,16.65
2019-03-21T03:13:25.183Z,12.85
2019-03-21T03:15:53.669Z,12.07
2019-03-21T03:18:23.411Z,7.85
2019-03-21T03:20:51.988Z,16.10
2019-03-21T03:23:20.518Z,12.95
2019-03-21T03:25:50.885Z,10.85
2019-03-21T03:28:31.224Z,9.28
2019-03-21T03:30:59.763Z,11.50
2019-03-21T03:33:28.714Z,14.25
2019-03-21T03:35:57.464Z,10.63
2019-03-21T03:38:25.890Z,10.48
2019-03-21T03:40:57.389Z,12.95
2019-03-21T03:43:25.840Z,11.40
2019-03-21T03:45:54.270Z,10.55
2019-03-21T03:48:22.788Z,18.42
2019-03-21T03:50:51.300Z,11.22
2019-03-21T03:53:19.715Z,9.33
2019-03-21T03:55:48.304Z,10.72
2019-03-21T03:58:24.973Z,11.20
2019-03-21T04:00:53.441Z,10.05
2019-03-21T04:03:22.021Z,12.10
2019-03-21T04:05:50.639Z,13.28
2019-03-21T04:08:19.084Z,14.70
2019-03-21T04:10:53.385Z,9.33
2019-03-21T04:13:21.794Z,9.33
2019-03-21T04:15:52.909Z,13.20
2019-03-21T04:18:23.115Z,9.83
2019-03-21T04:21:06.581Z,11.35
2019-03-21T04:23:35.296Z,13.53
2019-03-21T04:26:12.992Z,10.20
2019-03-21T04:28:42.591Z,10.23
2019-03-21T04:31:11.023Z,11.00
2019-03-21T04:33:39.533Z,12.23
2019-03-21T04:36:07.965Z,12.20
2019-03-21T04:38:36.425Z,10.48
2019-03-21T04:41:05.004Z,16.90
2019-03-21T04:43:33.429Z,14.23
2019-03-21T04:46:03.607Z,14.10
2019-03-21T04:48:32.072Z,12.63
2019-03-21T04:51:00.545Z,9.43
2019-03-21T04:53:29.011Z,12.18
2019-03-21T04:55:57.438Z,10.58
2019-03-21T04:58:25.851Z,9.45
2019-03-21T05:00:56.873Z,9.98
2019-03-21T05:03:30.332Z,11.53
2019-03-21T05:05:58.863Z,10.70
2019-03-21T05:08:27.283Z,11.15
2019-03-21T05:10:55.692Z,14.95
2019-03-21T05:13:24.151Z,9.93
2019-03-21T05:15:54.210Z,12.47
2019-03-21T05:18:32.056Z,16.97
2019-03-21T05:21:01.929Z,11.38
2019-03-21T05:23:30.439Z,9.13
2019-03-21T05:25:58.860Z,9.15
2019-03-21T05:28:27.331Z,10.40
2019-03-21T05:31:13.894Z,15.75
2019-03-21T05:33:42.540Z,11.85
2019-03-21T05:36:10.974Z,12.58
2019-03-21T05:38:39.401Z,8.38
2019-03-21T05:41:08.006Z,10.75
2019-03-21T05:43:42.480Z,9.98
2019-03-21T05:46:10.969Z,13.55
2019-03-21T05:48:39.379Z,10.58
2019-03-21T05:51:07.801Z,9.08
2019-03-21T05:53:36.311Z,10.48
2019-03-21T05:56:04.893Z,11.05
2019-03-21T05:58:33.311Z,15.30
2019-03-21T06:01:12.925Z,15.05
2019-03-21T06:03:46.650Z,10.28
2019-03-21T06:06:23.935Z,13.98
2019-03-21T06:08:52.455Z,13.88
2019-03-21T06:11:20.888Z,13.93
2019-03-21T06:13:49.355Z,16.05
2019-03-21T06:16:17.774Z,12.95
2019-03-21T06:19:01.064Z,14.85
2019-03-21T06:21:32.663Z,20.45
2019-03-21T06:24:09.883Z,11.50
2019-03-21T06:26:43.956Z,9.93
2019-03-21T06:29:12.383Z,10.75
2019-03-21T06:31:40.845Z,11.78
2019-03-21T06:34:09.285Z,11.80
2019-03-21T06:36:37.808Z,9.35
2019-03-21T06:39:08.771Z,13.38
2019-03-21T06:41:37.570Z,8.30
2019-03-21T06:44:06.113Z,8.63
2019-03-21T06:46:34.563Z,11.78
2019-03-21T06:49:03.042Z,9.60
2019-03-21T06:51:31.533Z,7.62
2019-03-21T06:54:00.041Z,8.35
2019-03-21T06:56:28.510Z,9.53
2019-03-21T06:58:57.948Z,10.03
2019-03-21T07:01:26.484Z,12.40
2019-03-21T07:04:06.318Z,7.10
2019-03-21T07:06:25.139Z,7.80
2019-03-21T07:08:53.545Z,9.98
2019-03-21T07:11:22.121Z,9.95
2019-03-21T07:13:50.577Z,12.35
2019-03-21T07:16:19.026Z,7.15
2019-03-21T07:18:47.470Z,8.60
2019-03-21T07:21:15.890Z,9.70
2019-03-21T07:23:44.351Z,15.38
2019-03-21T07:26:12.837Z,11.00
2019-03-21T07:28:41.293Z,12.47
2019-03-21T07:31:11.357Z,13.78
2019-03-21T07:33:39.929Z,9.68
2019-03-21T07:36:08.523Z,8.40
2019-03-21T07:38:36.968Z,11.22
2019-03-21T07:41:05.493Z,12.60
2019-03-21T07:43:33.905Z,12.50
2019-03-21T07:46:02.509Z,9.33
2019-03-21T07:48:31.054Z,11.10
2019-03-21T07:50:59.486Z,15.88
2019-03-21T07:53:27.951Z,10.43
2019-03-21T07:55:56.446Z,11.85
2019-03-21T07:58:24.858Z,9.03
2019-03-21T08:00:53.363Z,9.88
2019-03-21T08:03:21.818Z,11.18
2019-03-21T08:05:50.371Z,8.68
2019-03-21T08:08:18.908Z,7.78
2019-03-21T08:10:47.400Z,8.18
2019-03-21T08:13:16.106Z,9.18
2019-03-21T08:15:44.528Z,8.60
2019-03-21T08:18:13.014Z,10.43
2019-03-21T08:20:41.900Z,8.35
2019-03-21T08:23:10.342Z,8.18
2019-03-21T08:25:38.827Z,9.55
2019-03-21T08:28:07.289Z,10.85
2019-03-21T08:30:36.358Z,10.32
2019-03-21T08:33:05.352Z,8.25
2019-03-21T08:35:33.863Z,8.95
2019-03-21T08:38:02.605Z,11.53
2019-03-21T08:40:31.160Z,8.80
2019-03-21T08:42:59.580Z,11.18
2019-03-21T08:45:28.116Z,8.83
2019-03-21T08:47:56.628Z,7.97
2019-03-21T08:50:25.580Z,9.33
2019-03-21T08:52:54.036Z,11.45
2019-03-21T08:55:22.546Z,9.38
2019-03-21T08:57:51.008Z,10.60
2019-03-21T09:00:19.514Z,10.00
2019-03-21T09:02:47.962Z,8.10
2019-03-21T09:05:16.710Z,11.25
2019-03-21T09:07:45.148Z,7.70
2019-03-21T09:10:13.741Z,10.30
2019-03-21T09:12:42.748Z,12.82
2019-03-21T09:15:11.453Z,8.38
2019-03-21T09:17:39.880Z,7.72
2019-03-21T09:20:09.378Z,8.05
2019-03-21T09:22:37.972Z,8.80
2019-03-21T09:25:07.583Z,10.25
2019-03-21T09:27:36.078Z,8.18
2019-03-21T09:30:07.339Z,9.00
2019-03-21T09:32:35.796Z,9.18
2019-03-21T09:35:06.891Z,5.87
2019-03-21T09:37:35.413Z,5.12
2019-03-21T09:40:05.440Z,4.78
2019-03-21T09:42:33.956Z,5.80
2019-03-21T09:45:02.543Z,3.80
2019-03-21T09:47:30.996Z,5.50
2019-03-21T09:49:59.515Z,6.37
2019-03-21T09:52:27.910Z,4.90
2019-03-21T09:54:56.425Z,6.47
2019-03-21T09:57:24.870Z,6.40
2019-03-21T09:59:53.285Z,6.85
2019-03-21T10:02:21.813Z,7.47
2019-03-21T10:04:50.343Z,3.98
2019-03-21T10:07:18.852Z,6.72
2019-03-21T10:09:47.274Z,6.90
2019-03-21T10:12:15.738Z,4.45
2019-03-21T10:14:44.158Z,4.72
2019-03-21T10:17:12.624Z,4.92
2019-03-21T10:19:41.069Z,4.50
2019-03-21T10:22:09.549Z,4.92
2019-03-21T10:24:37.945Z,4.58
2019-03-21T10:27:06.421Z,5.25
2019-03-21T10:29:34.914Z,4.78
2019-03-21T10:32:13.900Z,4.95
2019-03-21T10:34:33.799Z,5.75
2019-03-21T10:37:02.246Z,6.30
2019-03-21T10:39:30.698Z,6.12
2019-03-21T10:41:59.194Z,5.58
2019-03-21T10:44:27.656Z,4.78
2019-03-21T10:46:56.118Z,3.87
2019-03-21T10:49:24.578Z,6.45
2019-03-21T10:51:55.136Z,7.00
2019-03-21T10:54:23.775Z,4.22
2019-03-21T10:56:52.441Z,4.78
2019-03-21T10:59:20.971Z,3.40
2019-03-21T11:01:49.390Z,5.40
2019-03-21T11:04:17.854Z,6.10
2019-03-21T11:06:46.633Z,3.47
2019-03-21T11:09:15.131Z,5.30
2019-03-21T11:11:43.602Z,5.85
2019-03-21T11:14:12.030Z,4.25
2019-03-21T11:16:40.448Z,5.95
2019-03-21T11:19:08.987Z,4.55
2019-03-21T11:21:37.464Z,4.75
2019-03-21T11:24:05.966Z,5.72
2019-03-21T11:26:34.430Z,7.17
2019-03-21T11:29:02.923Z,5.95
2019-03-21T11:31:31.375Z,4.90
2019-03-21T11:33:59.901Z,4.95
2019-03-21T11:36:37.827Z,4.50
2019-03-21T11:38:58.641Z,4.80
2019-03-21T11:41:27.224Z,5.47
2019-03-21T11:43:55.701Z,4.58
2019-03-21T11:46:24.173Z,6.10
2019-03-21T11:48:52.590Z,5.55
2019-03-21T11:51:21.133Z,4.95
2019-03-21T11:53:49.556Z,4.80
2019-03-21T11:56:18.033Z,6.78
2019-03-21T11:58:46.481Z,7.03
2019-03-21T12:01:14.930Z,5.70
2019-03-21T12:03:43.361Z,6.95
2019-03-21T12:06:11.829Z,9.68
2019-03-21T12:08:40.300Z,5.75
2019-03-21T12:11:08.793Z,4.60
2019-03-21T12:13:37.281Z,4.55
2019-03-21T12:16:05.832Z,6.97
2019-03-21T12:18:34.357Z,6.03
2019-03-21T12:21:02.883Z,10.10
2019-03-21T12:23:31.297Z,5.30
2019-03-21T12:25:59.744Z,5.45
2019-03-21T12:28:28.155Z,5.10
2019-03-21T12:30:56.611Z,6.28
2019-03-21T12:33:25.062Z,5.15
2019-03-21T12:35:53.516Z,4.58
2019-03-21T12:38:21.943Z,5.58
2019-03-21T12:40:50.412Z,5.53
2019-03-21T12:43:19.006Z,3.95
2019-03-21T12:45:47.426Z,6.15
2019-03-21T12:48:15.883Z,6.80
2019-03-21T12:50:44.403Z,5.45
2019-03-21T12:53:12.899Z,5.40
2019-03-21T12:55:41.431Z,7.60
2019-03-21T12:58:09.952Z,6.83
2019-03-21T13:00:40.054Z,5.33
2019-03-21T13:03:08.697Z,3.80
2019-03-21T13:05:37.269Z,5.30
2019-03-21T13:08:06.035Z,5.25
2019-03-21T13:10:34.566Z,5.47
2019-03-21T13:13:03.054Z,7.15
2019-03-21T13:15:31.587Z,4.97
2019-03-21T13:18:00.712Z,5.58
2019-03-21T13:20:29.482Z,9.70
2019-03-21T13:22:58.007Z,4.08
2019-03-21T13:25:26.533Z,5.20
2019-03-21T13:27:55.066Z,6.83
2019-03-21T13:30:23.604Z,6.60
2019-03-21T13:32:52.076Z,4.70
2019-03-21T13:35:31.621Z,6.85
2019-03-21T13:37:51.060Z,5.37
2019-03-21T13:40:19.658Z,6.58
2019-03-21T13:42:48.177Z,6.10
2019-03-21T13:45:16.689Z,6.28
2019-03-21T13:47:45.281Z,5.90
2019-03-21T13:50:13.868Z,6.10
2019-03-21T13:52:42.409Z,4.95
2019-03-21T13:55:11.878Z,5.37
2019-03-21T13:57:40.475Z,4.78
2019-03-21T14:00:20.003Z,5.67
2019-03-21T14:02:48.459Z,6.03
2019-03-21T14:05:17.029Z,14.38
2019-03-21T14:07:45.612Z,9.30
2019-03-21T14:10:14.281Z,5.80
2019-03-21T14:12:42.803Z,6.53
2019-03-21T14:15:16.611Z,7.00
2019-03-21T14:17:45.189Z,5.03
2019-03-21T14:20:15.467Z,6.50
2019-03-21T14:22:43.914Z,7.03
2019-03-21T14:25:12.512Z,5.70
2019-03-21T14:27:40.947Z,7.17
2019-03-21T14:30:12.389Z,6.37
2019-03-21T14:32:40.960Z,6.15
2019-03-21T14:35:10.810Z,5.28
2019-03-21T14:37:39.305Z,10.18
2019-03-21T14:40:13.510Z,5.15
2019-03-21T14:42:42.797Z,5.03
2019-03-21T14:45:14.240Z,6.22
2019-03-21T14:47:42.899Z,5.40
2019-03-21T14:50:16.522Z,5.08
2019-03-21T14:52:45.249Z,7.08
2019-03-21T14:55:15.267Z,6.05
2019-03-21T14:57:44.299Z,8.03
2019-03-21T15:00:17.783Z,8.23
2019-03-21T15:02:46.341Z,6.25
2019-03-21T15:05:15.826Z,8.83
2019-03-21T15:07:44.350Z,6.30
2019-03-21T15:10:15.871Z,7.17
2019-03-21T15:12:44.367Z,5.83
2019-03-21T15:15:15.155Z,6.78
2019-03-21T15:17:43.711Z,7.75
2019-03-21T15:20:17.475Z,6.62
2019-03-21T15:22:46.028Z,7.95
2019-03-21T15:25:14.904Z,7.25
2019-03-21T15:27:43.437Z,6.45
2019-03-21T15:30:17.637Z,6.90
2019-03-21T15:32:46.336Z,6.50
2019-03-21T15:35:17.335Z,5.40
2019-03-21T15:37:45.859Z,8.35
2019-03-21T15:40:15.522Z,8.45
2019-03-21T15:42:44.396Z,6.35
2019-03-21T15:45:22.712Z,7.05
2019-03-21T15:47:47.842Z,6.28
2019-03-21T15:50:38.500Z,6.80
2019-03-21T15:53:07.424Z,6.47
2019-03-21T15:55:36.672Z,7.00
2019-03-21T15:58:05.490Z,8.90
2019-03-21T16:00:36.488Z,6.75
2019-03-21T16:03:06.585Z,6.97
2019-03-21T16:05:35.863Z,6.45
2019-03-21T16:08:04.657Z,6.53
2019-03-21T16:10:33.243Z,5.90
2019-03-21T16:13:01.745Z,6.67
2019-03-21T16:15:30.442Z,8.10
2019-03-21T16:17:59.033Z,7.90
2019-03-21T16:20:27.533Z,7.17
2019-03-21T16:22:55.998Z,7.42
2019-03-21T16:25:24.602Z,7.25
2019-03-21T16:27:53.073Z,10.72
2019-03-21T16:30:21.655Z,8.73
2019-03-21T16:32:50.078Z,6.53
2019-03-21T16:35:18.601Z,7.47
2019-03-21T16:37:47.042Z,11.22
2019-03-21T16:40:16.772Z,7.22
2019-03-21T16:42:45.253Z,7.08
2019-03-21T16:45:15.397Z,7.70
2019-03-21T16:47:43.999Z,9.00
2019-03-21T16:50:13.749Z,8.78
2019-03-21T16:52:42.327Z,7.55
2019-03-21T16:55:12.127Z,13.55
2019-03-21T16:57:40.659Z,8.33
2019-03-21T17:00:20.623Z,7.87
2019-03-21T17:02:49.147Z,10.10
2019-03-21T17:05:17.708Z,7.25
2019-03-21T17:07:46.141Z,9.53
2019-03-21T17:10:16.302Z,6.17
2019-03-21T17:12:44.909Z,6.28
2019-03-21T17:15:14.225Z,6.95
2019-03-21T17:17:42.692Z,7.80
2019-03-21T17:20:12.374Z,6.90
2019-03-21T17:22:40.883Z,7.83
2019-03-21T17:25:10.015Z,6.65
2019-03-21T17:27:38.450Z,6.90
2019-03-21T17:30:12.978Z,6.85
2019-03-21T17:32:41.567Z,9.03
2019-03-21T17:35:10.268Z,8.10
2019-03-21T17:37:38.697Z,8.70
2019-03-21T17:40:10.232Z,8.50
2019-03-21T17:42:38.761Z,8.20
2019-03-21T17:45:10.276Z,10.82
2019-03-21T17:47:38.892Z,11.88
2019-03-21T17:50:09.231Z,12.85
2019-03-21T17:52:37.758Z,15.00
2019-03-21T17:55:07.062Z,12.68
2019-03-21T17:57:35.592Z,12.55
2019-03-21T18:00:09.855Z,15.28
2019-03-21T18:02:38.435Z,16.12
2019-03-21T18:05:07.975Z,13.68
2019-03-21T18:07:36.485Z,15.38
2019-03-21T18:10:07.986Z,10.53
2019-03-21T18:12:36.450Z,12.15
2019-03-21T18:15:06.985Z,11.95
2019-03-21T18:17:35.439Z,9.20
2019-03-21T18:20:05.043Z,8.90
2019-03-21T18:22:33.472Z,14.85
2019-03-21T18:25:01.947Z,14.55
2019-03-21T18:27:30.460Z,10.20
2019-03-21T18:29:58.900Z,10.78
2019-03-21T18:32:27.550Z,13.35
2019-03-21T18:34:55.959Z,12.93
2019-03-21T18:37:24.386Z,15.35
2019-03-21T18:39:52.853Z,13.20
2019-03-21T18:42:21.468Z,10.72
2019-03-21T18:44:50.589Z,12.05
2019-03-21T18:47:19.046Z,10.43
2019-03-21T18:49:47.556Z,11.90
2019-03-21T18:52:16.029Z,11.73
2019-03-21T18:54:44.488Z,14.68
2019-03-21T18:57:12.925Z,11.00
2019-03-21T18:59:41.462Z,13.65
2019-03-21T19:02:09.849Z,8.73
2019-03-21T19:04:38.271Z,11.28
2019-03-21T19:07:06.968Z,11.15
2019-03-21T19:09:35.629Z,11.10
2019-03-21T19:12:04.197Z,10.43
2019-03-21T19:14:32.741Z,16.02
2019-03-21T19:17:01.351Z,15.45
2019-03-21T19:19:29.857Z,14.75
2019-03-21T19:21:58.285Z,19.70
2019-03-21T19:24:26.808Z,25.62
2019-03-21T19:26:55.243Z,21.52
2019-03-21T19:29:23.712Z,16.27
2019-03-21T19:31:52.186Z,19.20
2019-03-21T19:34:20.704Z,8.15
2019-03-21T19:36:49.303Z,18.27
2019-03-21T19:39:17.748Z,17.67
2019-03-21T19:41:46.167Z,9.28
2019-03-21T19:44:14.725Z,8.60
2019-03-21T19:46:43.137Z,13.75
2019-03-21T19:49:11.752Z,13.83
2019-03-21T19:51:40.258Z,12.68
2019-03-21T19:54:08.774Z,9.70
2019-03-21T19:56:37.242Z,8.18
2019-03-21T19:59:05.796Z,11.35
2019-03-21T20:01:34.336Z,19.25
2019-03-21T20:04:02.779Z,22.52
2019-03-21T20:06:31.435Z,15.80
2019-03-21T20:08:59.839Z,15.15
2019-03-21T20:11:28.354Z,14.35
2019-03-21T20:13:56.801Z,15.58
2019-03-21T20:16:25.311Z,17.40
2019-03-21T20:18:53.754Z,18.32
2019-03-21T20:21:22.271Z,16.60
2019-03-21T20:23:50.719Z,22.58
2019-03-21T20:26:19.466Z,15.00
2019-03-21T20:28:48.146Z,13.80
2019-03-21T20:31:16.577Z,15.48
2019-03-21T20:33:45.080Z,14.98
2019-03-21T20:36:13.739Z,13.78
2019-03-21T20:38:42.244Z,15.43
2019-03-21T20:41:10.678Z,15.28
2019-03-21T20:43:39.212Z,18.95
2019-03-21T20:46:07.752Z,14.98
2019-03-21T20:48:35.039Z,20.85
2019-03-21T20:51:03.837Z,29.67
2019-03-21T20:53:32.337Z,32.30
2019-03-21T20:56:00.826Z,29.25
2019-03-21T20:58:29.290Z,75.40
2019-03-21T21:00:57.912Z,261.40
2019-03-21T21:03:26.424Z,205.65
2019-03-21T21:05:54.874Z,125.40
2019-03-21T21:08:23.331Z,119.72
2019-03-21T21:10:51.859Z,30.55
2019-03-21T21:13:20.293Z,29.95
2019-03-21T21:15:49.131Z,32.38
2019-03-21T21:18:17.569Z,15.05
2019-03-21T21:20:46.002Z,19.87
2019-03-21T21:23:14.446Z,18.62
2019-03-21T21:25:43.011Z,12.88
2019-03-21T21:28:11.526Z,11.15
2019-03-21T21:30:40.018Z,13.35
2019-03-21T21:33:10.941Z,29.23
2019-03-21T21:35:38.722Z,13.75
2019-03-21T21:38:07.327Z,14.25
2019-03-21T21:40:35.993Z,14.20
2019-03-21T21:43:04.494Z,18.02
2019-03-21T21:45:33.026Z,18.52
2019-03-21T21:48:01.458Z,18.92
2019-03-21T21:50:29.926Z,21.23
2019-03-21T21:52:58.360Z,20.12
2019-03-21T21:55:26.855Z,16.87
2019-03-21T21:57:55.384Z,17.98
2019-03-21T22:00:23.990Z,13.65
2019-03-21T22:02:52.408Z,13.60
2019-03-21T22:05:21.326Z,18.12
2019-03-21T22:07:49.817Z,15.18
2019-03-21T22:10:18.615Z,10.30
2019-03-21T22:12:47.176Z,15.83
2019-03-21T22:15:16.763Z,17.85
2019-03-21T22:17:45.452Z,14.93
2019-03-21T22:20:17.695Z,18.27
2019-03-21T22:22:46.330Z,24.60
2019-03-21T22:25:15.192Z,14.70
2019-03-21T22:27:43.855Z,20.37
2019-03-21T22:30:15.480Z,16.97
2019-03-21T22:32:44.049Z,16.85
2019-03-21T22:35:12.666Z,19.32
2019-03-21T22:37:41.230Z,16.65
2019-03-21T22:40:11.673Z,14.95
2019-03-21T22:42:40.206Z,15.48
2019-03-21T22:45:17.157Z,15.40
2019-03-21T22:47:45.778Z,18.73
2019-03-21T22:50:15.856Z,15.93
2019-03-21T22:52:45.072Z,13.53
2019-03-21T22:55:14.041Z,12.18
2019-03-21T22:57:43.870Z,17.73
2019-03-21T23:00:23.030Z,20.92
2019-03-21T23:02:51.519Z,18.80
2019-03-21T23:05:20.833Z,14.20
2019-03-21T23:07:49.338Z,12.43
2019-03-21T23:10:18.027Z,13.22
2019-03-21T23:12:46.502Z,14.20
2019-03-21T23:15:15.414Z,14.30
2019-03-21T23:17:43.903Z,10.03
2019-03-21T23:20:40.585Z,14.28
2019-03-21T23:23:09.025Z,10.95
2019-03-21T23:25:37.488Z,14.18
2019-03-21T23:28:05.976Z,13.20
2019-03-21T23:30:34.526Z,12.65
2019-03-21T23:33:03.043Z,11.55
2019-03-21T23:35:31.505Z,15.03
2019-03-21T23:37:59.931Z,9.98
2019-03-21T23:40:28.539Z,9.13
2019-03-21T23:42:56.972Z,10.38
2019-03-21T23:45:25.432Z,11.63
2019-03-21T23:47:53.871Z,11.83
2019-03-21T23:50:22.401Z,12.18
2019-03-21T23:52:50.843Z,13.18
2019-03-21T23:55:19.299Z,9.88
2019-03-21T23:57:47.734Z,9.73
